sensor_id;sensor_type;location;lat;lon;timestamp;P1;durP1;ratioP1;P2;durP2;ratioP2
33184;SDS011;19550;42.872;25.494;2022-08-24T00:01:23;15.57;;;6.00;;
33184;SDS011;19550;42.872;25.494;2022-08-24T00:03:52;11.93;;;5.90;;
33184;SDS011;19550;42.872;25.494;2022-08-24T00:06:20;20.90;;;6.20;;
33184;SDS011;19550;42.872;25.494;2022-08-24T00:08:50;20.08;;;5.80;;
33184;SDS011;19550;42.872;25.494;2022-08-24T00:11:18;23.80;;;7.32;;
33184;SDS011;19550;42.872;25.494;2022-08-24T00:13:46;18.83;;;6.50;;
33184;SDS011;19550;42.872;25.494;2022-08-24T00:16:14;21.80;;;7.20;;
33184;SDS011;19550;42.872;25.494;2022-08-24T00:18:42;16.83;;;6.72;;
33184;SDS011;19550;42.872;25.494;2022-08-24T00:21:09;14.95;;;6.07;;
33184;SDS011;19550;42.872;25.494;2022-08-24T00:23:37;18.63;;;7.05;;
33184;SDS011;19550;42.872;25.494;2022-08-24T00:26:05;16.60;;;6.78;;
33184;SDS011;19550;42.872;25.494;2022-08-24T00:28:33;11.38;;;6.65;;
33184;SDS011;19550;42.872;25.494;2022-08-24T00:31:01;16.90;;;6.10;;
33184;SDS011;19550;42.872;25.494;2022-08-24T00:33:29;20.98;;;7.25;;
33184;SDS011;19550;42.872;25.494;2022-08-24T00:35:56;19.85;;;6.80;;
33184;SDS011;19550;42.872;25.494;2022-08-24T00:38:23;12.15;;;6.18;;
33184;SDS011;19550;42.872;25.494;2022-08-24T00:40:50;17.83;;;7.18;;
33184;SDS011;19550;42.872;25.494;2022-08-24T00:43:19;26.67;;;6.82;;
33184;SDS011;19550;42.872;25.494;2022-08-24T00:45:50;16.02;;;6.25;;
33184;SDS011;19550;42.872;25.494;2022-08-24T00:48:28;16.55;;;6.85;;
33184;SDS011;19550;42.872;25.494;2022-08-24T00:50:57;25.60;;;6.72;;
33184;SDS011;19550;42.872;25.494;2022-08-24T00:53:28;13.27;;;7.10;;
33184;SDS011;19550;42.872;25.494;2022-08-24T00:56:00;12.38;;;6.65;;
33184;SDS011;19550;42.872;25.494;2022-08-24T00:58:33;16.35;;;6.28;;
33184;SDS011;19550;42.872;25.494;2022-08-24T01:01:03;15.10;;;7.40;;
33184;SDS011;19550;42.872;25.494;2022-08-24T01:03:33;16.75;;;7.28;;
33184;SDS011;19550;42.872;25.494;2022-08-24T01:06:02;12.55;;;7.43;;
33184;SDS011;19550;42.872;25.494;2022-08-24T01:08:30;10.98;;;6.68;;
33184;SDS011;19550;42.872;25.494;2022-08-24T01:10:58;20.98;;;7.55;;
33184;SDS011;19550;42.872;25.494;2022-08-24T01:13:28;17.55;;;6.85;;
33184;SDS011;19550;42.872;25.494;2022-08-24T01:15:58;19.45;;;7.95;;
33184;SDS011;19550;42.872;25.494;2022-08-24T01:18:30;15.05;;;6.93;;
33184;SDS011;19550;42.872;25.494;2022-08-24T01:21:18;19.27;;;7.55;;
33184;SDS011;19550;42.872;25.494;2022-08-24T01:23:49;14.10;;;6.85;;
33184;SDS011;19550;42.872;25.494;2022-08-24T01:26:20;21.52;;;7.30;;
33184;SDS011;19550;42.872;25.494;2022-08-24T01:28:49;18.17;;;7.88;;
33184;SDS011;19550;42.872;25.494;2022-08-24T01:31:21;19.02;;;7.22;;
33184;SDS011;19550;42.872;25.494;2022-08-24T01:33:50;18.42;;;6.65;;
33184;SDS011;19550;42.872;25.494;2022-08-24T01:36:19;15.52;;;6.50;;
33184;SDS011;19550;42.872;25.494;2022-08-24T01:38:55;20.13;;;7.38;;
33184;SDS011;19550;42.872;25.494;2022-08-24T01:41:31;16.98;;;7.15;;
33184;SDS011;19550;42.872;25.494;2022-08-24T01:43:58;11.02;;;7.55;;
33184;SDS011;19550;42.872;25.494;2022-08-24T01:46:25;16.13;;;7.53;;
33184;SDS011;19550;42.872;25.494;2022-08-24T01:48:52;23.23;;;7.60;;
33184;SDS011;19550;42.872;25.494;2022-08-24T01:51:22;26.85;;;7.50;;
33184;SDS011;19550;42.872;25.494;2022-08-24T01:53:49;20.55;;;7.70;;
33184;SDS011;19550;42.872;25.494;2022-08-24T01:56:17;23.95;;;7.72;;
33184;SDS011;19550;42.872;25.494;2022-08-24T01:58:45;14.10;;;7.35;;
33184;SDS011;19550;42.872;25.494;2022-08-24T02:01:14;15.40;;;7.70;;
33184;SDS011;19550;42.872;25.494;2022-08-24T02:03:42;19.52;;;7.80;;
33184;SDS011;19550;42.872;25.494;2022-08-24T02:06:10;41.20;;;8.52;;
33184;SDS011;19550;42.872;25.494;2022-08-24T02:08:37;19.48;;;7.53;;
33184;SDS011;19550;42.872;25.494;2022-08-24T02:11:04;21.95;;;7.72;;
33184;SDS011;19550;42.872;25.494;2022-08-24T02:13:34;11.25;;;7.45;;
33184;SDS011;19550;42.872;25.494;2022-08-24T02:16:01;15.18;;;7.47;;
33184;SDS011;19550;42.872;25.494;2022-08-24T02:18:29;20.05;;;7.00;;
33184;SDS011;19550;42.872;25.494;2022-08-24T02:20:57;19.23;;;7.55;;
33184;SDS011;19550;42.872;25.494;2022-08-24T02:23:24;21.38;;;7.68;;
33184;SDS011;19550;42.872;25.494;2022-08-24T02:25:53;14.20;;;7.70;;
33184;SDS011;19550;42.872;25.494;2022-08-24T02:28:20;17.92;;;8.30;;
33184;SDS011;19550;42.872;25.494;2022-08-24T02:30:49;18.67;;;8.02;;
33184;SDS011;19550;42.872;25.494;2022-08-24T02:33:16;15.25;;;8.13;;
33184;SDS011;19550;42.872;25.494;2022-08-24T02:35:43;19.77;;;7.72;;
33184;SDS011;19550;42.872;25.494;2022-08-24T02:38:10;11.05;;;6.82;;
33184;SDS011;19550;42.872;25.494;2022-08-24T02:40:37;18.55;;;7.22;;
33184;SDS011;19550;42.872;25.494;2022-08-24T02:43:04;14.75;;;7.47;;
33184;SDS011;19550;42.872;25.494;2022-08-24T02:45:31;24.48;;;8.02;;
33184;SDS011;19550;42.872;25.494;2022-08-24T02:48:00;16.50;;;8.68;;
33184;SDS011;19550;42.872;25.494;2022-08-24T02:50:27;17.85;;;9.30;;
33184;SDS011;19550;42.872;25.494;2022-08-24T02:52:54;17.70;;;8.98;;
33184;SDS011;19550;42.872;25.494;2022-08-24T02:55:21;15.68;;;8.73;;
33184;SDS011;19550;42.872;25.494;2022-08-24T02:57:48;18.50;;;8.80;;
33184;SDS011;19550;42.872;25.494;2022-08-24T03:00:17;18.98;;;8.98;;
33184;SDS011;19550;42.872;25.494;2022-08-24T03:05:14;16.85;;;8.23;;
33184;SDS011;19550;42.872;25.494;2022-08-24T03:07:41;23.58;;;8.55;;
33184;SDS011;19550;42.872;25.494;2022-08-24T03:10:09;15.68;;;9.60;;
33184;SDS011;19550;42.872;25.494;2022-08-24T03:12:36;22.40;;;9.52;;
33184;SDS011;19550;42.872;25.494;2022-08-24T03:15:04;19.80;;;8.77;;
33184;SDS011;19550;42.872;25.494;2022-08-24T03:17:33;19.30;;;9.57;;
33184;SDS011;19550;42.872;25.494;2022-08-24T03:20:01;23.40;;;9.95;;
33184;SDS011;19550;42.872;25.494;2022-08-24T03:22:32;21.42;;;9.50;;
33184;SDS011;19550;42.872;25.494;2022-08-24T03:24:59;17.50;;;9.32;;
33184;SDS011;19550;42.872;25.494;2022-08-24T03:27:26;22.42;;;8.90;;
33184;SDS011;19550;42.872;25.494;2022-08-24T03:29:53;20.33;;;10.32;;
33184;SDS011;19550;42.872;25.494;2022-08-24T03:32:20;28.60;;;10.27;;
33184;SDS011;19550;42.872;25.494;2022-08-24T03:34:47;17.23;;;10.25;;
33184;SDS011;19550;42.872;25.494;2022-08-24T03:37:14;17.25;;;10.82;;
33184;SDS011;19550;42.872;25.494;2022-08-24T03:39:43;18.13;;;10.85;;
33184;SDS011;19550;42.872;25.494;2022-08-24T03:44:38;21.33;;;11.80;;
33184;SDS011;19550;42.872;25.494;2022-08-24T03:47:05;19.98;;;12.80;;
33184;SDS011;19550;42.872;25.494;2022-08-24T03:49:33;18.48;;;12.00;;
33184;SDS011;19550;42.872;25.494;2022-08-24T03:52:00;23.33;;;12.52;;
33184;SDS011;19550;42.872;25.494;2022-08-24T03:54:27;21.30;;;11.27;;
33184;SDS011;19550;42.872;25.494;2022-08-24T03:56:56;24.73;;;12.02;;
33184;SDS011;19550;42.872;25.494;2022-08-24T03:59:24;23.33;;;12.82;;
33184;SDS011;19550;42.872;25.494;2022-08-24T04:01:51;23.33;;;12.05;;
33184;SDS011;19550;42.872;25.494;2022-08-24T04:04:20;21.73;;;11.93;;
33184;SDS011;19550;42.872;25.494;2022-08-24T04:06:47;28.40;;;16.42;;
33184;SDS011;19550;42.872;25.494;2022-08-24T04:09:14;28.83;;;12.55;;
33184;SDS011;19550;42.872;25.494;2022-08-24T04:11:42;18.90;;;11.20;;
33184;SDS011;19550;42.872;25.494;2022-08-24T04:14:11;24.05;;;17.10;;
33184;SDS011;19550;42.872;25.494;2022-08-24T04:16:40;18.17;;;12.18;;
33184;SDS011;19550;42.872;25.494;2022-08-24T04:19:08;31.40;;;21.15;;
33184;SDS011;19550;42.872;25.494;2022-08-24T04:21:36;22.98;;;12.63;;
33184;SDS011;19550;42.872;25.494;2022-08-24T04:24:03;22.20;;;11.88;;
33184;SDS011;19550;42.872;25.494;2022-08-24T04:26:32;20.23;;;12.60;;
33184;SDS011;19550;42.872;25.494;2022-08-24T04:29:02;25.92;;;20.42;;
33184;SDS011;19550;42.872;25.494;2022-08-24T04:31:32;25.10;;;12.45;;
33184;SDS011;19550;42.872;25.494;2022-08-24T04:36:27;20.67;;;13.85;;
33184;SDS011;19550;42.872;25.494;2022-08-24T04:38:54;21.45;;;13.68;;
33184;SDS011;19550;42.872;25.494;2022-08-24T04:41:21;24.02;;;13.32;;
33184;SDS011;19550;42.872;25.494;2022-08-24T04:43:48;27.90;;;21.23;;
33184;SDS011;19550;42.872;25.494;2022-08-24T04:46:16;22.08;;;14.85;;
33184;SDS011;19550;42.872;25.494;2022-08-24T04:48:46;25.53;;;18.33;;
33184;SDS011;19550;42.872;25.494;2022-08-24T04:51:15;25.58;;;13.93;;
33184;SDS011;19550;42.872;25.494;2022-08-24T04:53:44;20.85;;;12.63;;
33184;SDS011;19550;42.872;25.494;2022-08-24T04:56:13;19.50;;;12.93;;
33184;SDS011;19550;42.872;25.494;2022-08-24T04:58:41;22.67;;;13.70;;
33184;SDS011;19550;42.872;25.494;2022-08-24T05:01:12;20.05;;;13.35;;
33184;SDS011;19550;42.872;25.494;2022-08-24T05:03:42;17.95;;;13.32;;
33184;SDS011;19550;42.872;25.494;2022-08-24T05:06:11;20.40;;;13.38;;
33184;SDS011;19550;42.872;25.494;2022-08-24T05:08:39;23.10;;;13.27;;
33184;SDS011;19550;42.872;25.494;2022-08-24T05:11:07;17.92;;;13.15;;
33184;SDS011;19550;42.872;25.494;2022-08-24T05:13:36;24.55;;;14.38;;
33184;SDS011;19550;42.872;25.494;2022-08-24T05:16:05;29.05;;;13.70;;
33184;SDS011;19550;42.872;25.494;2022-08-24T05:18:33;23.30;;;13.38;;
33184;SDS011;19550;42.872;25.494;2022-08-24T05:21:01;19.15;;;13.90;;
33184;SDS011;19550;42.872;25.494;2022-08-24T05:23:34;21.30;;;14.23;;
33184;SDS011;19550;42.872;25.494;2022-08-24T05:26:04;23.02;;;17.35;;
33184;SDS011;19550;42.872;25.494;2022-08-24T05:28:33;24.02;;;15.57;;
33184;SDS011;19550;42.872;25.494;2022-08-24T05:31:07;21.55;;;16.52;;
33184;SDS011;19550;42.872;25.494;2022-08-24T05:33:35;28.55;;;17.73;;
33184;SDS011;19550;42.872;25.494;2022-08-24T05:36:03;29.13;;;17.20;;
33184;SDS011;19550;42.872;25.494;2022-08-24T05:38:31;26.70;;;18.48;;
33184;SDS011;19550;42.872;25.494;2022-08-24T05:41:03;30.88;;;21.65;;
33184;SDS011;19550;42.872;25.494;2022-08-24T05:43:31;36.60;;;22.25;;
33184;SDS011;19550;42.872;25.494;2022-08-24T05:45:58;35.05;;;26.15;;
33184;SDS011;19550;42.872;25.494;2022-08-24T05:48:25;37.53;;;25.13;;
33184;SDS011;19550;42.872;25.494;2022-08-24T05:50:52;45.92;;;27.48;;
33184;SDS011;19550;42.872;25.494;2022-08-24T05:53:20;33.90;;;23.10;;
33184;SDS011;19550;42.872;25.494;2022-08-24T05:55:48;29.77;;;20.15;;
33184;SDS011;19550;42.872;25.494;2022-08-24T05:58:17;26.88;;;17.90;;
33184;SDS011;19550;42.872;25.494;2022-08-24T06:00:44;27.25;;;16.73;;
33184;SDS011;19550;42.872;25.494;2022-08-24T06:03:14;26.20;;;16.80;;
33184;SDS011;19550;42.872;25.494;2022-08-24T06:05:42;27.98;;;14.35;;
33184;SDS011;19550;42.872;25.494;2022-08-24T06:08:11;29.30;;;19.15;;
33184;SDS011;19550;42.872;25.494;2022-08-24T06:10:39;31.90;;;19.02;;
33184;SDS011;19550;42.872;25.494;2022-08-24T06:13:07;30.45;;;17.92;;
33184;SDS011;19550;42.872;25.494;2022-08-24T06:15:36;22.35;;;12.15;;
33184;SDS011;19550;42.872;25.494;2022-08-24T06:18:04;19.17;;;12.00;;
33184;SDS011;19550;42.872;25.494;2022-08-24T06:20:32;28.48;;;14.25;;
33184;SDS011;19550;42.872;25.494;2022-08-24T06:23:04;22.95;;;13.82;;
33184;SDS011;19550;42.872;25.494;2022-08-24T06:25:31;16.73;;;12.35;;
33184;SDS011;19550;42.872;25.494;2022-08-24T06:28:16;17.95;;;13.20;;
33184;SDS011;19550;42.872;25.494;2022-08-24T06:30:44;24.85;;;12.40;;
33184;SDS011;19550;42.872;25.494;2022-08-24T06:33:11;18.15;;;11.70;;
33184;SDS011;19550;42.872;25.494;2022-08-24T06:35:38;21.65;;;11.75;;
33184;SDS011;19550;42.872;25.494;2022-08-24T06:38:06;18.63;;;11.55;;
33184;SDS011;19550;42.872;25.494;2022-08-24T06:40:34;18.55;;;10.77;;
33184;SDS011;19550;42.872;25.494;2022-08-24T06:43:01;20.70;;;11.23;;
33184;SDS011;19550;42.872;25.494;2022-08-24T06:45:29;15.48;;;10.73;;
33184;SDS011;19550;42.872;25.494;2022-08-24T06:47:58;16.77;;;11.15;;
33184;SDS011;19550;42.872;25.494;2022-08-24T06:50:25;23.67;;;13.35;;
33184;SDS011;19550;42.872;25.494;2022-08-24T06:52:52;21.08;;;11.40;;
33184;SDS011;19550;42.872;25.494;2022-08-24T06:55:19;21.40;;;12.50;;
33184;SDS011;19550;42.872;25.494;2022-08-24T06:57:46;25.40;;;13.43;;
33184;SDS011;19550;42.872;25.494;2022-08-24T07:00:13;23.85;;;12.63;;
33184;SDS011;19550;42.872;25.494;2022-08-24T07:02:41;19.23;;;10.48;;
33184;SDS011;19550;42.872;25.494;2022-08-24T07:05:10;18.13;;;10.05;;
33184;SDS011;19550;42.872;25.494;2022-08-24T07:07:37;19.13;;;9.90;;
33184;SDS011;19550;42.872;25.494;2022-08-24T07:10:05;15.55;;;9.98;;
33184;SDS011;19550;42.872;25.494;2022-08-24T07:12:33;16.23;;;9.98;;
33184;SDS011;19550;42.872;25.494;2022-08-24T07:15:00;13.20;;;9.20;;
33184;SDS011;19550;42.872;25.494;2022-08-24T07:17:28;19.83;;;9.70;;
33184;SDS011;19550;42.872;25.494;2022-08-24T07:19:55;17.13;;;9.57;;
33184;SDS011;19550;42.872;25.494;2022-08-24T07:22:23;17.63;;;10.52;;
33184;SDS011;19550;42.872;25.494;2022-08-24T07:24:50;15.63;;;9.80;;
33184;SDS011;19550;42.872;25.494;2022-08-24T07:27:17;19.05;;;9.85;;
33184;SDS011;19550;42.872;25.494;2022-08-24T07:29:45;19.10;;;9.60;;
33184;SDS011;19550;42.872;25.494;2022-08-24T07:32:11;18.63;;;10.93;;
33184;SDS011;19550;42.872;25.494;2022-08-24T07:34:38;21.23;;;10.27;;
33184;SDS011;19550;42.872;25.494;2022-08-24T07:37:05;15.10;;;10.80;;
33184;SDS011;19550;42.872;25.494;2022-08-24T07:39:34;18.88;;;10.52;;
33184;SDS011;19550;42.872;25.494;2022-08-24T07:42:01;16.10;;;10.77;;
33184;SDS011;19550;42.872;25.494;2022-08-24T07:44:29;22.45;;;11.48;;
33184;SDS011;19550;42.872;25.494;2022-08-24T07:46:56;18.75;;;12.50;;
33184;SDS011;19550;42.872;25.494;2022-08-24T07:49:23;20.38;;;12.45;;
33184;SDS011;19550;42.872;25.494;2022-08-24T07:51:50;18.15;;;13.00;;
33184;SDS011;19550;42.872;25.494;2022-08-24T07:54:18;25.85;;;13.13;;
33184;SDS011;19550;42.872;25.494;2022-08-24T07:56:46;23.25;;;12.95;;
33184;SDS011;19550;42.872;25.494;2022-08-24T07:59:14;27.20;;;13.00;;
33184;SDS011;19550;42.872;25.494;2022-08-24T08:01:41;21.02;;;13.02;;
33184;SDS011;19550;42.872;25.494;2022-08-24T08:04:08;23.85;;;14.02;;
33184;SDS011;19550;42.872;25.494;2022-08-24T08:06:36;24.50;;;12.85;;
33184;SDS011;19550;42.872;25.494;2022-08-24T08:09:03;20.38;;;13.07;;
33184;SDS011;19550;42.872;25.494;2022-08-24T08:11:30;22.83;;;12.98;;
33184;SDS011;19550;42.872;25.494;2022-08-24T08:13:59;24.33;;;12.30;;
33184;SDS011;19550;42.872;25.494;2022-08-24T08:16:26;12.75;;;8.63;;
33184;SDS011;19550;42.872;25.494;2022-08-24T08:18:53;15.30;;;9.77;;
33184;SDS011;19550;42.872;25.494;2022-08-24T08:21:20;20.08;;;10.85;;
33184;SDS011;19550;42.872;25.494;2022-08-24T08:24:05;23.17;;;10.90;;
33184;SDS011;19550;42.872;25.494;2022-08-24T08:26:42;14.60;;;8.88;;
33184;SDS011;19550;42.872;25.494;2022-08-24T08:29:11;14.98;;;9.43;;
33184;SDS011;19550;42.872;25.494;2022-08-24T08:31:39;22.35;;;10.00;;
33184;SDS011;19550;42.872;25.494;2022-08-24T08:34:06;32.95;;;9.88;;
33184;SDS011;19550;42.872;25.494;2022-08-24T08:36:34;27.42;;;11.20;;
33184;SDS011;19550;42.872;25.494;2022-08-24T08:39:03;31.90;;;10.90;;
33184;SDS011;19550;42.872;25.494;2022-08-24T08:50:38;24.50;;;10.55;;
33184;SDS011;19550;42.872;25.494;2022-08-24T08:53:33;29.98;;;11.38;;
33184;SDS011;19550;42.872;25.494;2022-08-24T08:56:38;25.88;;;10.18;;
33184;SDS011;19550;42.872;25.494;2022-08-24T08:59:14;16.00;;;8.57;;
33184;SDS011;19550;42.872;25.494;2022-08-24T09:01:55;23.35;;;10.55;;
33184;SDS011;19550;42.872;25.494;2022-08-24T09:04:43;29.02;;;9.48;;
33184;SDS011;19550;42.872;25.494;2022-08-24T09:07:25;27.80;;;10.50;;
33184;SDS011;19550;42.872;25.494;2022-08-24T09:13:19;17.98;;;8.80;;
33184;SDS011;19550;42.872;25.494;2022-08-24T09:19:12;25.30;;;9.40;;
33184;SDS011;19550;42.872;25.494;2022-08-24T09:21:53;19.05;;;9.05;;
33184;SDS011;19550;42.872;25.494;2022-08-24T09:27:31;16.23;;;6.82;;
33184;SDS011;19550;42.872;25.494;2022-08-24T09:30:08;22.42;;;6.70;;
33184;SDS011;19550;42.872;25.494;2022-08-24T09:32:48;17.80;;;6.53;;
33184;SDS011;19550;42.872;25.494;2022-08-24T09:35:30;9.35;;;5.72;;
33184;SDS011;19550;42.872;25.494;2022-08-24T09:38:00;12.55;;;7.60;;
33184;SDS011;19550;42.872;25.494;2022-08-24T09:40:35;13.80;;;6.88;;
33184;SDS011;19550;42.872;25.494;2022-08-24T09:46:27;16.27;;;6.72;;
33184;SDS011;19550;42.872;25.494;2022-08-24T09:49:17;19.48;;;7.80;;
33184;SDS011;19550;42.872;25.494;2022-08-24T09:52:12;15.68;;;7.18;;
33184;SDS011;19550;42.872;25.494;2022-08-24T09:58:08;14.07;;;7.50;;
33184;SDS011;19550;42.872;25.494;2022-08-24T10:03:23;16.35;;;7.32;;
33184;SDS011;19550;42.872;25.494;2022-08-24T10:06:16;14.93;;;7.85;;
33184;SDS011;19550;42.872;25.494;2022-08-24T10:09:06;12.55;;;7.90;;
33184;SDS011;19550;42.872;25.494;2022-08-24T10:11:46;18.92;;;8.88;;
33184;SDS011;19550;42.872;25.494;2022-08-24T10:14:23;20.85;;;8.23;;
33184;SDS011;19550;42.872;25.494;2022-08-24T10:17:03;21.42;;;8.10;;
33184;SDS011;19550;42.872;25.494;2022-08-24T10:19:42;15.65;;;7.90;;
33184;SDS011;19550;42.872;25.494;2022-08-24T10:22:19;18.55;;;8.40;;
33184;SDS011;19550;42.872;25.494;2022-08-24T10:25:05;16.38;;;9.07;;
33184;SDS011;19550;42.872;25.494;2022-08-24T10:27:44;20.50;;;8.32;;
33184;SDS011;19550;42.872;25.494;2022-08-24T10:33:20;28.30;;;9.75;;
33184;SDS011;19550;42.872;25.494;2022-08-24T10:35:54;19.05;;;9.20;;
33184;SDS011;19550;42.872;25.494;2022-08-24T10:38:33;20.85;;;9.40;;
33184;SDS011;19550;42.872;25.494;2022-08-24T10:45:02;24.63;;;10.15;;
33184;SDS011;19550;42.872;25.494;2022-08-24T10:47:58;26.02;;;9.20;;
33184;SDS011;19550;42.872;25.494;2022-08-24T10:50:49;16.85;;;9.10;;
33184;SDS011;19550;42.872;25.494;2022-08-24T10:53:23;22.92;;;10.98;;
33184;SDS011;19550;42.872;25.494;2022-08-24T10:58:43;22.37;;;10.00;;
33184;SDS011;19550;42.872;25.494;2022-08-24T11:01:17;34.17;;;11.73;;
33184;SDS011;19550;42.872;25.494;2022-08-24T11:03:47;30.60;;;9.75;;
33184;SDS011;19550;42.872;25.494;2022-08-24T11:06:18;30.15;;;10.45;;
33184;SDS011;19550;42.872;25.494;2022-08-24T11:08:51;31.70;;;9.95;;
33184;SDS011;19550;42.872;25.494;2022-08-24T11:11:22;26.67;;;10.07;;
33184;SDS011;19550;42.872;25.494;2022-08-24T11:13:53;27.30;;;8.93;;
33184;SDS011;19550;42.872;25.494;2022-08-24T11:16:25;20.50;;;8.98;;
33184;SDS011;19550;42.872;25.494;2022-08-24T11:18:58;23.00;;;10.35;;
33184;SDS011;19550;42.872;25.494;2022-08-24T11:21:31;26.85;;;9.30;;
33184;SDS011;19550;42.872;25.494;2022-08-24T11:24:03;29.75;;;9.95;;
33184;SDS011;19550;42.872;25.494;2022-08-24T11:26:34;37.90;;;10.65;;
33184;SDS011;19550;42.872;25.494;2022-08-24T11:29:16;28.45;;;9.80;;
33184;SDS011;19550;42.872;25.494;2022-08-24T11:31:46;22.45;;;9.43;;
33184;SDS011;19550;42.872;25.494;2022-08-24T11:34:16;27.80;;;10.07;;
33184;SDS011;19550;42.872;25.494;2022-08-24T11:36:46;26.77;;;10.25;;
33184;SDS011;19550;42.872;25.494;2022-08-24T11:39:14;24.25;;;9.75;;
33184;SDS011;19550;42.872;25.494;2022-08-24T11:41:56;30.67;;;9.73;;
33184;SDS011;19550;42.872;25.494;2022-08-24T11:44:34;23.15;;;9.30;;
33184;SDS011;19550;42.872;25.494;2022-08-24T11:47:08;29.92;;;9.70;;
33184;SDS011;19550;42.872;25.494;2022-08-24T11:49:52;22.45;;;9.30;;
33184;SDS011;19550;42.872;25.494;2022-08-24T11:52:29;44.25;;;10.05;;
33184;SDS011;19550;42.872;25.494;2022-08-24T11:55:07;35.10;;;10.23;;
33184;SDS011;19550;42.872;25.494;2022-08-24T11:57:40;40.13;;;10.18;;
33184;SDS011;19550;42.872;25.494;2022-08-24T12:00:15;32.42;;;10.27;;
33184;SDS011;19550;42.872;25.494;2022-08-24T12:02:46;37.72;;;10.25;;
33184;SDS011;19550;42.872;25.494;2022-08-24T12:05:25;28.83;;;9.90;;
33184;SDS011;19550;42.872;25.494;2022-08-24T12:08:02;37.40;;;9.63;;
33184;SDS011;19550;42.872;25.494;2022-08-24T12:10:39;33.15;;;10.27;;
33184;SDS011;19550;42.872;25.494;2022-08-24T12:13:20;35.45;;;11.05;;
33184;SDS011;19550;42.872;25.494;2022-08-24T12:16:02;38.85;;;10.35;;
33184;SDS011;19550;42.872;25.494;2022-08-24T12:18:38;39.10;;;10.52;;
33184;SDS011;19550;42.872;25.494;2022-08-24T12:21:13;44.13;;;10.48;;
33184;SDS011;19550;42.872;25.494;2022-08-24T12:23:44;41.97;;;10.93;;
33184;SDS011;19550;42.872;25.494;2022-08-24T12:26:16;43.70;;;10.68;;
33184;SDS011;19550;42.872;25.494;2022-08-24T12:28:50;37.70;;;10.65;;
33184;SDS011;19550;42.872;25.494;2022-08-24T12:31:27;37.42;;;10.88;;
33184;SDS011;19550;42.872;25.494;2022-08-24T12:34:02;44.83;;;11.80;;
33184;SDS011;19550;42.872;25.494;2022-08-24T12:36:35;43.70;;;10.13;;
33184;SDS011;19550;42.872;25.494;2022-08-24T12:39:08;46.78;;;11.55;;
33184;SDS011;19550;42.872;25.494;2022-08-24T12:41:40;35.70;;;10.27;;
33184;SDS011;19550;42.872;25.494;2022-08-24T12:44:18;37.80;;;10.73;;
33184;SDS011;19550;42.872;25.494;2022-08-24T12:46:53;39.35;;;10.00;;
33184;SDS011;19550;42.872;25.494;2022-08-24T12:49:22;32.35;;;10.02;;
33184;SDS011;19550;42.872;25.494;2022-08-24T12:51:58;42.20;;;9.85;;
33184;SDS011;19550;42.872;25.494;2022-08-24T12:54:45;39.47;;;9.93;;
33184;SDS011;19550;42.872;25.494;2022-08-24T12:57:36;41.42;;;9.55;;
33184;SDS011;19550;42.872;25.494;2022-08-24T13:00:14;41.38;;;11.10;;
33184;SDS011;19550;42.872;25.494;2022-08-24T13:02:53;34.10;;;8.73;;
33184;SDS011;19550;42.872;25.494;2022-08-24T13:05:22;28.15;;;9.00;;
33184;SDS011;19550;42.872;25.494;2022-08-24T13:07:52;40.08;;;9.43;;
33184;SDS011;19550;42.872;25.494;2022-08-24T13:10:36;32.72;;;9.10;;
33184;SDS011;19550;42.872;25.494;2022-08-24T13:13:13;39.38;;;9.00;;
33184;SDS011;19550;42.872;25.494;2022-08-24T13:15:53;46.05;;;9.60;;
33184;SDS011;19550;42.872;25.494;2022-08-24T13:21:37;35.63;;;8.60;;
33184;SDS011;19550;42.872;25.494;2022-08-24T13:30:31;38.33;;;8.43;;
33184;SDS011;19550;42.872;25.494;2022-08-24T13:33:15;45.38;;;9.13;;
33184;SDS011;19550;42.872;25.494;2022-08-24T13:35:58;40.25;;;9.35;;
33184;SDS011;19550;42.872;25.494;2022-08-24T13:44:34;30.77;;;8.27;;
33184;SDS011;19550;42.872;25.494;2022-08-24T13:47:13;30.13;;;8.00;;
33184;SDS011;19550;42.872;25.494;2022-08-24T13:49:49;42.05;;;8.65;;
33184;SDS011;19550;42.872;25.494;2022-08-24T13:52:36;38.70;;;8.90;;
33184;SDS011;19550;42.872;25.494;2022-08-24T13:55:30;35.13;;;7.90;;
33184;SDS011;19550;42.872;25.494;2022-08-24T13:58:13;33.38;;;7.20;;
33184;SDS011;19550;42.872;25.494;2022-08-24T14:00:49;33.00;;;7.80;;
33184;SDS011;19550;42.872;25.494;2022-08-24T14:03:35;35.83;;;7.60;;
33184;SDS011;19550;42.872;25.494;2022-08-24T14:06:26;41.42;;;7.45;;
33184;SDS011;19550;42.872;25.494;2022-08-24T14:09:05;28.15;;;7.10;;
33184;SDS011;19550;42.872;25.494;2022-08-24T14:14:41;26.70;;;7.90;;
33184;SDS011;19550;42.872;25.494;2022-08-24T14:17:26;36.85;;;7.95;;
33184;SDS011;19550;42.872;25.494;2022-08-24T14:20:17;39.00;;;8.30;;
33184;SDS011;19550;42.872;25.494;2022-08-24T14:23:07;32.13;;;7.90;;
33184;SDS011;19550;42.872;25.494;2022-08-24T14:25:48;40.13;;;9.15;;
33184;SDS011;19550;42.872;25.494;2022-08-24T14:28:35;38.03;;;8.63;;
33184;SDS011;19550;42.872;25.494;2022-08-24T14:31:16;40.45;;;7.85;;
33184;SDS011;19550;42.872;25.494;2022-08-24T14:33:50;39.30;;;7.63;;
33184;SDS011;19550;42.872;25.494;2022-08-24T14:36:28;38.75;;;8.95;;
33184;SDS011;19550;42.872;25.494;2022-08-24T14:39:09;28.13;;;7.90;;
33184;SDS011;19550;42.872;25.494;2022-08-24T14:41:51;31.27;;;7.40;;
33184;SDS011;19550;42.872;25.494;2022-08-24T14:44:24;35.20;;;7.95;;
33184;SDS011;19550;42.872;25.494;2022-08-24T14:47:10;47.92;;;9.20;;
33184;SDS011;19550;42.872;25.494;2022-08-24T14:49:55;39.55;;;8.27;;
33184;SDS011;19550;42.872;25.494;2022-08-24T14:55:35;35.67;;;8.40;;
33184;SDS011;19550;42.872;25.494;2022-08-24T15:01:11;33.47;;;8.45;;
33184;SDS011;19550;42.872;25.494;2022-08-24T15:04:05;37.28;;;9.07;;
33184;SDS011;19550;42.872;25.494;2022-08-24T15:06:53;33.45;;;8.63;;
33184;SDS011;19550;42.872;25.494;2022-08-24T15:09:24;42.75;;;8.65;;
33184;SDS011;19550;42.872;25.494;2022-08-24T15:11:53;46.08;;;9.32;;
33184;SDS011;19550;42.872;25.494;2022-08-24T15:14:37;31.42;;;8.65;;
33184;SDS011;19550;42.872;25.494;2022-08-24T15:17:13;33.25;;;8.75;;
33184;SDS011;19550;42.872;25.494;2022-08-24T15:19:44;27.52;;;8.82;;
33184;SDS011;19550;42.872;25.494;2022-08-24T15:22:23;39.50;;;10.27;;
33184;SDS011;19550;42.872;25.494;2022-08-24T15:24:56;30.30;;;8.13;;
33184;SDS011;19550;42.872;25.494;2022-08-24T15:27:38;38.20;;;10.35;;
33184;SDS011;19550;42.872;25.494;2022-08-24T15:30:22;31.88;;;8.52;;
33184;SDS011;19550;42.872;25.494;2022-08-24T15:32:53;44.30;;;11.18;;
33184;SDS011;19550;42.872;25.494;2022-08-24T15:35:32;35.05;;;9.25;;
33184;SDS011;19550;42.872;25.494;2022-08-24T15:38:14;31.70;;;8.98;;
33184;SDS011;19550;42.872;25.494;2022-08-24T15:40:43;29.50;;;8.57;;
33184;SDS011;19550;42.872;25.494;2022-08-24T15:43:11;33.13;;;9.18;;
33184;SDS011;19550;42.872;25.494;2022-08-24T15:45:43;38.90;;;10.35;;
33184;SDS011;19550;42.872;25.494;2022-08-24T15:48:13;41.83;;;9.85;;
33184;SDS011;19550;42.872;25.494;2022-08-24T15:50:45;30.30;;;9.90;;
33184;SDS011;19550;42.872;25.494;2022-08-24T15:53:28;37.85;;;9.95;;
33184;SDS011;19550;42.872;25.494;2022-08-24T15:55:58;29.73;;;8.57;;